sensor_id;sensor_type;location;lat;lon;timestamp;temperature;humidity
23713;DHT22;12035;49.978;8.298;2023-02-28T00:01:31;3.60;52.30
23713;DHT22;12035;49.978;8.298;2023-02-28T00:06:29;3.60;52.20
23713;DHT22;12035;49.978;8.298;2023-02-28T00:11:29;3.70;52.40
23713;DHT22;12035;49.978;8.298;2023-02-28T00:16:28;3.70;52.30
23713;DHT22;12035;49.978;8.298;2023-02-28T00:21:25;3.70;52.30
23713;DHT22;12035;49.978;8.298;2023-02-28T00:26:23;3.70;52.10
23713;DHT22;12035;49.978;8.298;2023-02-28T00:31:21;3.80;52.40
23713;DHT22;12035;49.978;8.298;2023-02-28T00:36:20;3.80;52.70
23713;DHT22;12035;49.978;8.298;2023-02-28T00:41:17;3.80;52.70
23713;DHT22;12035;49.978;8.298;2023-02-28T00:46:15;3.80;53.40
23713;DHT22;12035;49.978;8.298;2023-02-28T00:51:14;3.70;53.50
23713;DHT22;12035;49.978;8.298;2023-02-28T00:56:13;3.90;53.60
23713;DHT22;12035;49.978;8.298;2023-02-28T01:01:11;3.80;54.00
23713;DHT22;12035;49.978;8.298;2023-02-28T01:06:11;3.80;54.00
23713;DHT22;12035;49.978;8.298;2023-02-28T01:11:11;3.70;54.20
23713;DHT22;12035;49.978;8.298;2023-02-28T01:16:14;3.70;54.70
23713;DHT22;12035;49.978;8.298;2023-02-28T01:21:13;3.70;55.00
23713;DHT22;12035;49.978;8.298;2023-02-28T01:26:15;3.60;55.20
23713;DHT22;12035;49.978;8.298;2023-02-28T01:31:15;3.60;55.30
23713;DHT22;12035;49.978;8.298;2023-02-28T01:36:17;3.60;55.80
23713;DHT22;12035;49.978;8.298;2023-02-28T01:41:23;3.50;56.00
23713;DHT22;12035;49.978;8.298;2023-02-28T01:46:22;3.40;56.10
23713;DHT22;12035;49.978;8.298;2023-02-28T01:51:22;3.50;56.50
23713;DHT22;12035;49.978;8.298;2023-02-28T01:56:27;3.50;56.70
23713;DHT22;12035;49.978;8.298;2023-02-28T02:01:29;3.30;57.40
23713;DHT22;12035;49.978;8.298;2023-02-28T02:06:31;3.20;57.70
23713;DHT22;12035;49.978;8.298;2023-02-28T02:11:34;3.20;57.70
23713;DHT22;12035;49.978;8.298;2023-02-28T02:16:39;3.10;58.40
23713;DHT22;12035;49.978;8.298;2023-02-28T02:22:09;3.00;58.50
23713;DHT22;12035;49.978;8.298;2023-02-28T02:27:26;3.00;58.60
23713;DHT22;12035;49.978;8.298;2023-02-28T02:32:54;2.90;59.10
23713;DHT22;12035;49.978;8.298;2023-02-28T02:38:08;3.10;59.10
23713;DHT22;12035;49.978;8.298;2023-02-28T02:43:13;2.80;59.20
23713;DHT22;12035;49.978;8.298;2023-02-28T02:48:16;2.80;59.20
23713;DHT22;12035;49.978;8.298;2023-02-28T02:53:25;2.80;59.20
23713;DHT22;12035;49.978;8.298;2023-02-28T02:58:32;2.80;59.40
23713;DHT22;12035;49.978;8.298;2023-02-28T03:03:37;2.70;59.80
23713;DHT22;12035;49.978;8.298;2023-02-28T03:08:38;2.70;59.50
23713;DHT22;12035;49.978;8.298;2023-02-28T03:13:56;2.70;59.70
23713;DHT22;12035;49.978;8.298;2023-02-28T03:19:12;2.60;59.70
23713;DHT22;12035;49.978;8.298;2023-02-28T03:24:29;2.50;59.90
23713;DHT22;12035;49.978;8.298;2023-02-28T03:29:33;2.50;59.70
23713;DHT22;12035;49.978;8.298;2023-02-28T03:34:34;2.50;59.80
23713;DHT22;12035;49.978;8.298;2023-02-28T03:39:39;2.40;60.40
23713;DHT22;12035;49.978;8.298;2023-02-28T03:44:42;2.40;59.50
23713;DHT22;12035;49.978;8.298;2023-02-28T03:49:44;2.40;59.80
23713;DHT22;12035;49.978;8.298;2023-02-28T03:54:50;2.40;59.80
23713;DHT22;12035;49.978;8.298;2023-02-28T03:59:54;2.50;59.80
23713;DHT22;12035;49.978;8.298;2023-02-28T04:04:54;2.30;59.70
23713;DHT22;12035;49.978;8.298;2023-02-28T04:09:53;2.30;59.60
23713;DHT22;12035;49.978;8.298;2023-02-28T04:14:51;2.30;59.60
23713;DHT22;12035;49.978;8.298;2023-02-28T04:19:49;2.40;59.40
23713;DHT22;12035;49.978;8.298;2023-02-28T04:24:46;2.30;59.60
23713;DHT22;12035;49.978;8.298;2023-02-28T04:29:45;2.20;59.80
23713;DHT22;12035;49.978;8.298;2023-02-28T04:34:43;2.20;59.50
23713;DHT22;12035;49.978;8.298;2023-02-28T04:39:42;2.20;59.80
23713;DHT22;12035;49.978;8.298;2023-02-28T04:44:39;2.20;59.70
23713;DHT22;12035;49.978;8.298;2023-02-28T04:49:40;2.20;59.40
23713;DHT22;12035;49.978;8.298;2023-02-28T04:54:38;2.20;59.40
23713;DHT22;12035;49.978;8.298;2023-02-28T04:59:36;2.20;59.40
23713;DHT22;12035;49.978;8.298;2023-02-28T05:04:37;2.20;59.20
23713;DHT22;12035;49.978;8.298;2023-02-28T05:09:35;2.20;59.70
23713;DHT22;12035;49.978;8.298;2023-02-28T05:14:32;2.20;59.20
23713;DHT22;12035;49.978;8.298;2023-02-28T05:19:31;2.20;59.50
23713;DHT22;12035;49.978;8.298;2023-02-28T05:24:30;2.20;59.10
23713;DHT22;12035;49.978;8.298;2023-02-28T05:29:28;2.10;59.30
23713;DHT22;12035;49.978;8.298;2023-02-28T05:34:27;2.20;59.20
23713;DHT22;12035;49.978;8.298;2023-02-28T05:39:24;2.10;59.30
23713;DHT22;12035;49.978;8.298;2023-02-28T05:44:23;2.10;59.20
23713;DHT22;12035;49.978;8.298;2023-02-28T05:49:20;2.10;59.30
23713;DHT22;12035;49.978;8.298;2023-02-28T05:54:18;2.00;59.30
23713;DHT22;12035;49.978;8.298;2023-02-28T05:59:15;2.00;59.30
23713;DHT22;12035;49.978;8.298;2023-02-28T06:04:17;2.00;59.20
23713;DHT22;12035;49.978;8.298;2023-02-28T06:09:16;1.90;59.20
23713;DHT22;12035;49.978;8.298;2023-02-28T06:14:23;1.90;59.10
23713;DHT22;12035;49.978;8.298;2023-02-28T06:19:23;1.90;59.10
23713;DHT22;12035;49.978;8.298;2023-02-28T06:24:22;2.00;59.10
23713;DHT22;12035;49.978;8.298;2023-02-28T06:29:21;1.90;59.20
23713;DHT22;12035;49.978;8.298;2023-02-28T06:34:18;1.90;59.30
23713;DHT22;12035;49.978;8.298;2023-02-28T06:39:18;1.90;59.50
23713;DHT22;12035;49.978;8.298;2023-02-28T06:44:17;2.20;59.90
23713;DHT22;12035;49.978;8.298;2023-02-28T06:49:14;2.50;59.60
23713;DHT22;12035;49.978;8.298;2023-02-28T06:54:12;2.90;59.20
23713;DHT22;12035;49.978;8.298;2023-02-28T06:59:12;3.50;58.80
23713;DHT22;12035;49.978;8.298;2023-02-28T07:04:09;4.10;57.60
23713;DHT22;12035;49.978;8.298;2023-02-28T07:09:08;4.50;56.90
23713;DHT22;12035;49.978;8.298;2023-02-28T07:14:06;5.00;55.80
23713;DHT22;12035;49.978;8.298;2023-02-28T07:19:06;5.50;54.80
23713;DHT22;12035;49.978;8.298;2023-02-28T07:24:04;5.90;53.50
23713;DHT22;12035;49.978;8.298;2023-02-28T07:29:02;6.20;52.70
23713;DHT22;12035;49.978;8.298;2023-02-28T07:34:01;6.50;51.60
23713;DHT22;12035;49.978;8.298;2023-02-28T07:39:00;6.70;50.90
23713;DHT22;12035;49.978;8.298;2023-02-28T07:43:58;6.90;49.90
23713;DHT22;12035;49.978;8.298;2023-02-28T07:48:56;7.00;49.20
23713;DHT22;12035;49.978;8.298;2023-02-28T07:53:55;7.10;48.60
23713;DHT22;12035;49.978;8.298;2023-02-28T07:58:54;7.00;48.30
23713;DHT22;12035;49.978;8.298;2023-02-28T08:03:51;7.10;48.60
23713;DHT22;12035;49.978;8.298;2023-02-28T08:08:50;7.20;48.80
23713;DHT22;12035;49.978;8.298;2023-02-28T08:13:49;7.30;48.10
23713;DHT22;12035;49.978;8.298;2023-02-28T08:18:49;7.40;48.60
23713;DHT22;12035;49.978;8.298;2023-02-28T08:23:47;7.70;48.10
23713;DHT22;12035;49.978;8.298;2023-02-28T08:28:45;7.70;47.20
23713;DHT22;12035;49.978;8.298;2023-02-28T08:33:43;7.60;45.50
23713;DHT22;12035;49.978;8.298;2023-02-28T08:38:43;7.00;45.50
23713;DHT22;12035;49.978;8.298;2023-02-28T08:43:40;6.60;46.30
23713;DHT22;12035;49.978;8.298;2023-02-28T08:48:39;6.40;47.00
23713;DHT22;12035;49.978;8.298;2023-02-28T08:53:46;6.20;47.30
23713;DHT22;12035;49.978;8.298;2023-02-28T08:58:45;6.10;47.50
23713;DHT22;12035;49.978;8.298;2023-02-28T09:03:45;5.90;47.50
23713;DHT22;12035;49.978;8.298;2023-02-28T09:08:46;6.10;48.00
23713;DHT22;12035;49.978;8.298;2023-02-28T09:13:43;6.20;47.50
23713;DHT22;12035;49.978;8.298;2023-02-28T09:18:41;6.30;47.20
23713;DHT22;12035;49.978;8.298;2023-02-28T09:23:38;6.50;46.90
23713;DHT22;12035;49.978;8.298;2023-02-28T09:28:39;6.70;46.50
23713;DHT22;12035;49.978;8.298;2023-02-28T09:33:36;6.90;45.10
23713;DHT22;12035;49.978;8.298;2023-02-28T09:38:33;7.00;45.10
23713;DHT22;12035;49.978;8.298;2023-02-28T09:43:34;7.20;45.20
23713;DHT22;12035;49.978;8.298;2023-02-28T09:48:37;7.30;44.20
23713;DHT22;12035;49.978;8.298;2023-02-28T09:53:38;7.40;42.80
23713;DHT22;12035;49.978;8.298;2023-02-28T09:58:44;7.40;42.80
23713;DHT22;12035;49.978;8.298;2023-02-28T10:03:48;7.30;42.20
23713;DHT22;12035;49.978;8.298;2023-02-28T10:09:02;7.40;42.50
23713;DHT22;12035;49.978;8.298;2023-02-28T10:14:03;7.60;42.80
23713;DHT22;12035;49.978;8.298;2023-02-28T10:19:06;7.50;42.30
23713;DHT22;12035;49.978;8.298;2023-02-28T10:24:19;7.50;41.20
23713;DHT22;12035;49.978;8.298;2023-02-28T10:29:20;7.40;41.50
23713;DHT22;12035;49.978;8.298;2023-02-28T10:34:22;7.30;41.90
23713;DHT22;12035;49.978;8.298;2023-02-28T10:39:41;7.10;42.20
23713;DHT22;12035;49.978;8.298;2023-02-28T10:44:39;7.20;43.10
23713;DHT22;12035;49.978;8.298;2023-02-28T10:49:47;7.00;42.60
23713;DHT22;12035;49.978;8.298;2023-02-28T10:54:44;7.10;42.40
23713;DHT22;12035;49.978;8.298;2023-02-28T10:59:53;7.30;42.10
23713;DHT22;12035;49.978;8.298;2023-02-28T11:05:29;7.40;42.00
23713;DHT22;12035;49.978;8.298;2023-02-28T11:10:31;7.50;41.50
23713;DHT22;12035;49.978;8.298;2023-02-28T11:15:32;7.50;41.00
23713;DHT22;12035;49.978;8.298;2023-02-28T11:20:33;7.60;41.20
23713;DHT22;12035;49.978;8.298;2023-02-28T11:25:32;7.70;40.90
23713;DHT22;12035;49.978;8.298;2023-02-28T11:30:35;7.80;41.20
23713;DHT22;12035;49.978;8.298;2023-02-28T11:35:37;8.00;41.00
23713;DHT22;12035;49.978;8.298;2023-02-28T11:40:43;8.10;41.30
23713;DHT22;12035;49.978;8.298;2023-02-28T11:45:58;8.10;40.00
23713;DHT22;12035;49.978;8.298;2023-02-28T11:51:14;8.10;40.20
23713;DHT22;12035;49.978;8.298;2023-02-28T11:56:19;8.30;40.30
23713;DHT22;12035;49.978;8.298;2023-02-28T12:01:43;8.40;40.10
23713;DHT22;12035;49.978;8.298;2023-02-28T12:06:55;8.40;39.20
23713;DHT22;12035;49.978;8.298;2023-02-28T12:12:02;8.30;38.80
23713;DHT22;12035;49.978;8.298;2023-02-28T12:17:15;8.20;38.80
23713;DHT22;12035;49.978;8.298;2023-02-28T12:22:28;8.20;39.20
23713;DHT22;12035;49.978;8.298;2023-02-28T12:27:29;8.30;38.90
23713;DHT22;12035;49.978;8.298;2023-02-28T12:32:32;8.30;39.20
23713;DHT22;12035;49.978;8.298;2023-02-28T12:37:36;8.40;39.30
23713;DHT22;12035;49.978;8.298;2023-02-28T12:42:40;8.40;39.00
23713;DHT22;12035;49.978;8.298;2023-02-28T12:47:43;8.50;38.90
23713;DHT22;12035;49.978;8.298;2023-02-28T12:52:48;8.40;38.70
23713;DHT22;12035;49.978;8.298;2023-02-28T12:57:58;8.50;38.70
23713;DHT22;12035;49.978;8.298;2023-02-28T13:03:29;8.30;38.50
23713;DHT22;12035;49.978;8.298;2023-02-28T13:09:00;8.40;39.20
23713;DHT22;12035;49.978;8.298;2023-02-28T13:14:03;8.30;38.80
23713;DHT22;12035;49.978;8.298;2023-02-28T13:19:10;8.30;38.60
23713;DHT22;12035;49.978;8.298;2023-02-28T13:24:11;8.40;39.20
23713;DHT22;12035;49.978;8.298;2023-02-28T13:29:28;8.30;38.90
23713;DHT22;12035;49.978;8.298;2023-02-28T13:34:29;8.40;39.30
23713;DHT22;12035;49.978;8.298;2023-02-28T13:39:48;8.40;39.40
23713;DHT22;12035;49.978;8.298;2023-02-28T13:45:20;8.40;39.20
23713;DHT22;12035;49.978;8.298;2023-02-28T13:50:29;8.40;38.80
23713;DHT22;12035;49.978;8.298;2023-02-28T13:55:34;8.30;38.80
23713;DHT22;12035;49.978;8.298;2023-02-28T14:00:45;8.20;39.50
23713;DHT22;12035;49.978;8.298;2023-02-28T14:06:14;8.20;39.40
23713;DHT22;12035;49.978;8.298;2023-02-28T14:11:31;8.20;39.70
23713;DHT22;12035;49.978;8.298;2023-02-28T14:16:40;8.20;39.50
23713;DHT22;12035;49.978;8.298;2023-02-28T14:21:54;8.10;39.10
23713;DHT22;12035;49.978;8.298;2023-02-28T14:32:26;8.10;39.70
23713;DHT22;12035;49.978;8.298;2023-02-28T14:37:28;8.10;40.10
23713;DHT22;12035;49.978;8.298;2023-02-28T14:42:32;8.10;40.30
23713;DHT22;12035;49.978;8.298;2023-02-28T14:47:32;8.10;40.00
23713;DHT22;12035;49.978;8.298;2023-02-28T14:52:32;8.10;40.10
23713;DHT22;12035;49.978;8.298;2023-02-28T14:57:33;8.10;40.30
23713;DHT22;12035;49.978;8.298;2023-02-28T15:02:34;8.10;40.30
23713;DHT22;12035;49.978;8.298;2023-02-28T15:07:32;8.20;40.30
23713;DHT22;12035;49.978;8.298;2023-02-28T15:12:30;8.10;40.30
23713;DHT22;12035;49.978;8.298;2023-02-28T15:17:28;8.00;40.20
23713;DHT22;12035;49.978;8.298;2023-02-28T15:22:31;8.10;40.60
23713;DHT22;12035;49.978;8.298;2023-02-28T15:27:42;8.00;40.70
23713;DHT22;12035;49.978;8.298;2023-02-28T15:32:43;8.00;40.70
23713;DHT22;12035;49.978;8.298;2023-02-28T15:37:47;8.00;40.90
23713;DHT22;12035;49.978;8.298;2023-02-28T15:42:59;8.10;41.10
23713;DHT22;12035;49.978;8.298;2023-02-28T15:48:00;8.00;40.70
23713;DHT22;12035;49.978;8.298;2023-02-28T15:52:57;8.00;40.70
23713;DHT22;12035;49.978;8.298;2023-02-28T15:57:57;8.00;40.90
23713;DHT22;12035;49.978;8.298;2023-02-28T16:02:58;7.90;41.10
23713;DHT22;12035;49.978;8.298;2023-02-28T16:07:57;7.80;41.20
23713;DHT22;12035;49.978;8.298;2023-02-28T16:12:56;7.70;41.50
23713;DHT22;12035;49.978;8.298;2023-02-28T16:17:56;7.70;41.70
23713;DHT22;12035;49.978;8.298;2023-02-28T16:22:54;7.70;42.00
23713;DHT22;12035;49.978;8.298;2023-02-28T16:27:56;7.70;42.10
23713;DHT22;12035;49.978;8.298;2023-02-28T16:32:57;7.70;42.20
23713;DHT22;12035;49.978;8.298;2023-02-28T16:37:56;7.60;42.20
23713;DHT22;12035;49.978;8.298;2023-02-28T16:42:57;7.50;42.30
23713;DHT22;12035;49.978;8.298;2023-02-28T16:47:57;7.60;42.50
23713;DHT22;12035;49.978;8.298;2023-02-28T16:52:55;7.50;42.70
23713;DHT22;12035;49.978;8.298;2023-02-28T16:57:56;7.50;43.00
23713;DHT22;12035;49.978;8.298;2023-02-28T17:02:57;7.50;43.20
23713;DHT22;12035;49.978;8.298;2023-02-28T17:07:57;7.50;43.40
23713;DHT22;12035;49.978;8.298;2023-02-28T17:12:54;7.50;43.50
23713;DHT22;12035;49.978;8.298;2023-02-28T17:17:52;7.40;43.80
23713;DHT22;12035;49.978;8.298;2023-02-28T17:22:51;7.30;44.00
23713;DHT22;12035;49.978;8.298;2023-02-28T17:27:49;7.10;44.10
23713;DHT22;12035;49.978;8.298;2023-02-28T17:32:46;7.10;44.90
23713;DHT22;12035;49.978;8.298;2023-02-28T17:43:18;6.90;44.80
23713;DHT22;12035;49.978;8.298;2023-02-28T17:48:42;6.90;44.90
23713;DHT22;12035;49.978;8.298;2023-02-28T17:53:42;6.80;45.20
23713;DHT22;12035;49.978;8.298;2023-02-28T17:58:39;6.90;45.20
23713;DHT22;12035;49.978;8.298;2023-02-28T18:03:37;6.70;45.20
23713;DHT22;12035;49.978;8.298;2023-02-28T18:08:34;6.60;45.10
23713;DHT22;12035;49.978;8.298;2023-02-28T18:13:37;6.70;45.30
23713;DHT22;12035;49.978;8.298;2023-02-28T18:18:34;6.70;45.40
23713;DHT22;12035;49.978;8.298;2023-02-28T18:23:33;6.60;45.30
23713;DHT22;12035;49.978;8.298;2023-02-28T18:28:44;6.60;45.40
23713;DHT22;12035;49.978;8.298;2023-02-28T18:33:42;6.60;45.50
23713;DHT22;12035;49.978;8.298;2023-02-28T18:38:40;6.70;45.50
23713;DHT22;12035;49.978;8.298;2023-02-28T18:43:39;6.40;45.50
23713;DHT22;12035;49.978;8.298;2023-02-28T18:48:38;6.30;45.50
23713;DHT22;12035;49.978;8.298;2023-02-28T18:53:38;6.30;45.50
23713;DHT22;12035;49.978;8.298;2023-02-28T18:58:56;6.30;45.60
23713;DHT22;12035;49.978;8.298;2023-02-28T19:04:12;6.20;45.60
23713;DHT22;12035;49.978;8.298;2023-02-28T19:09:10;6.20;45.60
23713;DHT22;12035;49.978;8.298;2023-02-28T19:14:08;6.30;45.70
23713;DHT22;12035;49.978;8.298;2023-02-28T19:19:05;6.20;45.80
23713;DHT22;12035;49.978;8.298;2023-02-28T19:24:05;6.10;46.00
23713;DHT22;12035;49.978;8.298;2023-02-28T19:29:04;6.00;46.40
23713;DHT22;12035;49.978;8.298;2023-02-28T19:34:02;5.90;46.80
23713;DHT22;12035;49.978;8.298;2023-02-28T19:39:04;5.80;46.80
23713;DHT22;12035;49.978;8.298;2023-02-28T19:44:09;5.70;47.60
23713;DHT22;12035;49.978;8.298;2023-02-28T19:49:09;5.70;47.20
23713;DHT22;12035;49.978;8.298;2023-02-28T19:54:09;5.60;47.30
23713;DHT22;12035;49.978;8.298;2023-02-28T19:59:09;5.60;47.50
23713;DHT22;12035;49.978;8.298;2023-02-28T20:04:09;5.60;48.00
23713;DHT22;12035;49.978;8.298;2023-02-28T20:09:11;5.50;48.10
23713;DHT22;12035;49.978;8.298;2023-02-28T20:14:09;5.40;48.20
23713;DHT22;12035;49.978;8.298;2023-02-28T20:19:08;5.50;48.30
23713;DHT22;12035;49.978;8.298;2023-02-28T20:24:07;5.30;48.50
23713;DHT22;12035;49.978;8.298;2023-02-28T20:29:07;5.20;48.80
23713;DHT22;12035;49.978;8.298;2023-02-28T20:34:07;5.20;48.80
23713;DHT22;12035;49.978;8.298;2023-02-28T20:39:04;5.20;49.00
23713;DHT22;12035;49.978;8.298;2023-02-28T20:44:03;5.10;49.60
23713;DHT22;12035;49.978;8.298;2023-02-28T20:49:03;5.10;49.40
23713;DHT22;12035;49.978;8.298;2023-02-28T20:54:01;5.00;49.50
23713;DHT22;12035;49.978;8.298;2023-02-28T20:58:58;5.00;49.80
23713;DHT22;12035;49.978;8.298;2023-02-28T21:03:58;4.90;50.00
23713;DHT22;12035;49.978;8.298;2023-02-28T21:08:58;4.90;49.80
23713;DHT22;12035;49.978;8.298;2023-02-28T21:13:58;4.90;50.40
23713;DHT22;12035;49.978;8.298;2023-02-28T21:19:00;4.80;50.50
23713;DHT22;12035;49.978;8.298;2023-02-28T21:23:59;5.00;50.50
23713;DHT22;12035;49.978;8.298;2023-02-28T21:28:58;4.80;50.20
23713;DHT22;12035;49.978;8.298;2023-02-28T21:34:00;4.80;50.60
23713;DHT22;12035;49.978;8.298;2023-02-28T21:39:02;4.80;51.00
23713;DHT22;12035;49.978;8.298;2023-02-28T21:44:03;4.60;51.20
23713;DHT22;12035;49.978;8.298;2023-02-28T21:49:04;4.60;51.10
23713;DHT22;12035;49.978;8.298;2023-02-28T21:54:02;4.60;51.10
23713;DHT22;12035;49.978;8.298;2023-02-28T21:59:04;4.60;51.20
23713;DHT22;12035;49.978;8.298;2023-02-28T22:04:08;4.60;51.30
23713;DHT22;12035;49.978;8.298;2023-02-28T22:09:15;4.60;51.50
23713;DHT22;12035;49.978;8.298;2023-02-28T22:14:13;4.50;51.60
23713;DHT22;12035;49.978;8.298;2023-02-28T22:19:14;4.50;51.50
23713;DHT22;12035;49.978;8.298;2023-02-28T22:24:11;4.40;51.80
23713;DHT22;12035;49.978;8.298;2023-02-28T22:29:09;4.40;51.90
23713;DHT22;12035;49.978;8.298;2023-02-28T22:34:08;4.40;51.80
23713;DHT22;12035;49.978;8.298;2023-02-28T22:39:09;4.40;52.10
23713;DHT22;12035;49.978;8.298;2023-02-28T22:44:07;4.40;52.20
23713;DHT22;12035;49.978;8.298;2023-02-28T22:49:05;4.30;52.90
23713;DHT22;12035;49.978;8.298;2023-02-28T22:54:03;4.20;52.50
23713;DHT22;12035;49.978;8.298;2023-02-28T22:59:02;4.10;52.50
23713;DHT22;12035;49.978;8.298;2023-02-28T23:04:02;4.10;52.80
23713;DHT22;12035;49.978;8.298;2023-02-28T23:09:04;4.10;52.60
23713;DHT22;12035;49.978;8.298;2023-02-28T23:14:05;4.10;52.70
23713;DHT22;12035;49.978;8.298;2023-02-28T23:19:05;4.10;52.70
23713;DHT22;12035;49.978;8.298;2023-02-28T23:24:06;4.10;52.60
23713;DHT22;12035;49.978;8.298;2023-02-28T23:29:07;4.10;52.60
23713;DHT22;12035;49.978;8.298;2023-02-28T23:34:05;4.20;52.70
23713;DHT22;12035;49.978;8.298;2023-02-28T23:39:02;4.00;53.20
23713;DHT22;12035;49.978;8.298;2023-02-28T23:44:00;4.00;53.30
23713;DHT22;12035;49.978;8.298;2023-02-28T23:49:00;4.00;53.40
23713;DHT22;12035;49.978;8.298;2023-02-28T23:53:57;3.80;53.40
23713;DHT22;12035;49.978;8.298;2023-02-28T23:58:59;3.90;53.70
